N444BC KCOS-KRSW
Flight info
| Callsign | N444BC |
|---|---|
| Flight time | 2h 51m |
| Altitude | 17000 |
| Route | DRAKE V83 PUB/N0494F410 DRAWL/N0492F450 END KOMMA GLH SHYRE HEVVN PLYER TYNEE4 |
| Aircraft | C750/M-SBDE3FGHRWXY/S |
Departure
| Time | 2026-04-26 18:33 |
|---|---|
| Airport | City of Colorado Springs Municipal Airport (KCOS) |
Arrival
| Time | 2026-04-26 21:25 |
|---|---|
| Airport | Southwest Florida International Airport (KRSW) |
| Time | Latitude | Longitude | Altitude | Speed | Heading |
|---|---|---|---|---|---|
| 2026-04-26 18:06 | 38.80777 | -104.72001 | 6156 ft | 0 kts | 181° |
| 2026-04-26 18:26 | 38.80770 | -104.71998 | 6155 ft | 2 kts | 154° |
| 2026-04-26 18:26 | 38.80767 | -104.71984 | 6155 ft | 1 kts | 80° |
| 2026-04-26 18:27 | 38.80773 | -104.71977 | 6155 ft | 2 kts | 38° |
| 2026-04-26 18:27 | 38.80798 | -104.71966 | 6156 ft | 6 kts | 13° |
| 2026-04-26 18:27 | 38.80853 | -104.71959 | 6157 ft | 10 kts | 3° |
| 2026-04-26 18:27 | 38.80926 | -104.71955 | 6158 ft | 11 kts | 1° |
| 2026-04-26 18:28 | 38.81016 | -104.71953 | 6159 ft | 14 kts | 0° |
| 2026-04-26 18:28 | 38.81106 | -104.71953 | 6161 ft | 11 kts | 360° |
| 2026-04-26 18:28 | 38.81183 | -104.71953 | 6162 ft | 11 kts | 359° |
| 2026-04-26 18:28 | 38.81252 | -104.71945 | 6163 ft | 8 kts | 34° |
| 2026-04-26 18:29 | 38.81262 | -104.71884 | 6163 ft | 8 kts | 91° |
| 2026-04-26 18:29 | 38.81263 | -104.71785 | 6163 ft | 12 kts | 79° |
| 2026-04-26 18:29 | 38.81324 | -104.71732 | 6164 ft | 7 kts | 2° |
| 2026-04-26 18:29 | 38.81378 | -104.71732 | 6165 ft | 10 kts | 360° |
| 2026-04-26 18:30 | 38.81459 | -104.71732 | 6166 ft | 14 kts | 0° |
| 2026-04-26 18:30 | 38.81567 | -104.71732 | 6168 ft | 16 kts | 0° |
| 2026-04-26 18:30 | 38.81673 | -104.71731 | 6172 ft | 15 kts | 0° |
| 2026-04-26 18:30 | 38.81768 | -104.71732 | 6174 ft | 12 kts | 360° |
| 2026-04-26 18:31 | 38.81840 | -104.71732 | 6177 ft | 10 kts | 0° |
| 2026-04-26 18:31 | 38.81921 | -104.71731 | 6175 ft | 14 kts | 360° |
| 2026-04-26 18:31 | 38.82028 | -104.71731 | 6179 ft | 14 kts | 360° |
| 2026-04-26 18:31 | 38.82114 | -104.71731 | 6178 ft | 11 kts | 360° |
| 2026-04-26 18:32 | 38.82187 | -104.71731 | 6178 ft | 9 kts | 2° |
| 2026-04-26 18:32 | 38.82237 | -104.71686 | 6181 ft | 10 kts | 60° |
| 2026-04-26 18:32 | 38.82230 | -104.71601 | 6179 ft | 11 kts | 140° |
| 2026-04-26 18:32 | 38.82140 | -104.71589 | 6177 ft | 17 kts | 180° |
| 2026-04-26 18:33 | 38.81926 | -104.71588 | 6174 ft | 62 kts | 180° |
| 2026-04-26 18:33 | 38.81207 | -104.71590 | 6164 ft | 134 kts | 180° |
| 2026-04-26 18:33 | 38.80201 | -104.71586 | 6471 ft | 152 kts | 177° |
| 2026-04-26 18:33 | 38.79112 | -104.71575 | 7159 ft | 159 kts | 179° |
| 2026-04-26 18:34 | 38.78004 | -104.71528 | 7977 ft | 157 kts | 180° |
| 2026-04-26 18:34 | 38.76916 | -104.71477 | 8756 ft | 161 kts | 182° |
| 2026-04-26 18:34 | 38.75731 | -104.71408 | 9271 ft | 179 kts | 182° |
| 2026-04-26 18:34 | 38.74460 | -104.71105 | 9802 ft | 198 kts | 163° |
| 2026-04-26 18:35 | 38.73681 | -104.70394 | 10030 ft | 220 kts | 144° |
| 2026-04-26 18:35 | 38.72238 | -104.68321 | 10510 ft | 242 kts | 140° |
| 2026-04-26 18:35 | 38.71113 | -104.66593 | 10816 ft | 268 kts | 133° |
| 2026-04-26 18:35 | 38.70187 | -104.64374 | 11183 ft | 298 kts | 120° |
| 2026-04-26 18:36 | 38.69414 | -104.61790 | 11530 ft | 320 kts | 117° |
| 2026-04-26 18:36 | 38.68595 | -104.59060 | 11745 ft | 345 kts | 117° |
| 2026-04-26 18:36 | 38.67698 | -104.56119 | 12095 ft | 363 kts | 117° |
| 2026-04-26 18:36 | 38.66780 | -104.53078 | 12752 ft | 367 kts | 117° |
| 2026-04-26 18:37 | 38.65783 | -104.50049 | 13322 ft | 373 kts | 122° |
| 2026-04-26 18:37 | 38.64370 | -104.47265 | 13722 ft | 373 kts | 137° |
| 2026-04-26 18:37 | 38.62589 | -104.45045 | 14961 ft | 342 kts | 145° |
| 2026-04-26 18:37 | 38.60738 | -104.43174 | 15510 ft | 342 kts | 156° |
| 2026-04-26 18:38 | 38.58511 | -104.41987 | 15541 ft | 353 kts | 171° |
| 2026-04-26 18:38 | 38.56071 | -104.41587 | 15853 ft | 352 kts | 185° |
| 2026-04-26 18:38 | 38.53633 | -104.41737 | 16532 ft | 352 kts | 188° |
| 2026-04-26 18:38 | 38.51174 | -104.41916 | 17121 ft | 356 kts | 188° |
| 2026-04-26 18:39 | 38.48681 | -104.42024 | 17744 ft | 360 kts | 187° |
| 2026-04-26 18:39 | 38.46161 | -104.42118 | 18343 ft | 364 kts | 187° |
| 2026-04-26 18:39 | 38.43626 | -104.42246 | 18976 ft | 364 kts | 188° |
| 2026-04-26 18:39 | 38.41119 | -104.42381 | 19620 ft | 367 kts | 188° |
| 2026-04-26 18:40 | 38.38557 | -104.42506 | 20221 ft | 370 kts | 187° |
| 2026-04-26 18:40 | 38.35957 | -104.42518 | 20781 ft | 379 kts | 181° |
| 2026-04-26 18:40 | 38.33345 | -104.41741 | 21368 ft | 394 kts | 167° |
| 2026-04-26 18:40 | 38.30863 | -104.40109 | 21955 ft | 411 kts | 153° |
| 2026-04-26 18:41 | 38.28713 | -104.37616 | 22507 ft | 429 kts | 137° |
| 2026-04-26 18:41 | 38.27101 | -104.34330 | 23060 ft | 448 kts | 121° |
| 2026-04-26 18:41 | 38.26005 | -104.30586 | 23561 ft | 455 kts | 115° |
| 2026-04-26 18:41 | 38.24989 | -104.26753 | 24018 ft | 459 kts | 114° |
| 2026-04-26 18:42 | 38.23957 | -104.22891 | 24457 ft | 462 kts | 116° |
| 2026-04-26 18:42 | 38.22876 | -104.19023 | 24837 ft | 467 kts | 116° |
| 2026-04-26 18:42 | 38.21777 | -104.15103 | 25234 ft | 472 kts | 115° |
| 2026-04-26 18:42 | 38.20693 | -104.11138 | 25676 ft | 476 kts | 115° |
| 2026-04-26 18:43 | 38.19604 | -104.07142 | 26110 ft | 480 kts | 115° |
| 2026-04-26 18:43 | 38.18487 | -104.03120 | 26541 ft | 484 kts | 116° |
| 2026-04-26 18:43 | 38.17368 | -103.99114 | 26966 ft | 488 kts | 116° |
| 2026-04-26 18:43 | 38.16235 | -103.95027 | 27400 ft | 492 kts | 116° |
| 2026-04-26 18:44 | 38.15094 | -103.90898 | 27848 ft | 496 kts | 116° |
| 2026-04-26 18:44 | 38.13940 | -103.86754 | 28294 ft | 500 kts | 116° |
| 2026-04-26 18:44 | 38.12768 | -103.82566 | 28725 ft | 504 kts | 116° |
| 2026-04-26 18:44 | 38.11594 | -103.78361 | 29164 ft | 508 kts | 116° |
| 2026-04-26 18:45 | 38.10409 | -103.74115 | 29592 ft | 512 kts | 116° |
| 2026-04-26 18:45 | 38.09210 | -103.69836 | 29989 ft | 516 kts | 116° |
| 2026-04-26 18:45 | 38.07998 | -103.65527 | 30174 ft | 523 kts | 117° |
| 2026-04-26 18:45 | 38.06759 | -103.61144 | 30332 ft | 531 kts | 117° |
| 2026-04-26 18:46 | 38.05523 | -103.56723 | 30747 ft | 533 kts | 117° |
| 2026-04-26 18:46 | 38.04286 | -103.52299 | 31244 ft | 532 kts | 117° |
| 2026-04-26 18:46 | 38.03034 | -103.47884 | 31705 ft | 532 kts | 117° |
| 2026-04-26 18:46 | 38.01776 | -103.43465 | 32205 ft | 532 kts | 117° |
| 2026-04-26 18:47 | 38.00525 | -103.39046 | 32687 ft | 533 kts | 117° |
| 2026-04-26 18:47 | 37.99275 | -103.34623 | 33160 ft | 534 kts | 117° |
| 2026-04-26 18:47 | 37.98030 | -103.30251 | 33625 ft | 534 kts | 117° |
| 2026-04-26 18:47 | 37.96762 | -103.25812 | 33992 ft | 534 kts | 117° |
| 2026-04-26 18:48 | 37.95498 | -103.21374 | 34480 ft | 533 kts | 117° |
| 2026-04-26 18:48 | 37.94242 | -103.16968 | 35011 ft | 531 kts | 117° |
| 2026-04-26 18:48 | 37.92986 | -103.12580 | 35529 ft | 529 kts | 117° |
| 2026-04-26 18:48 | 37.91731 | -103.08213 | 36047 ft | 526 kts | 117° |
| 2026-04-26 18:49 | 37.90479 | -103.03857 | 36476 ft | 527 kts | 117° |
| 2026-04-26 18:49 | 37.89225 | -102.99496 | 36981 ft | 526 kts | 117° |
| 2026-04-26 18:49 | 37.87976 | -102.95151 | 37549 ft | 524 kts | 117° |
| 2026-04-26 18:49 | 37.86726 | -102.90819 | 38132 ft | 522 kts | 117° |
| 2026-04-26 18:50 | 37.85477 | -102.86506 | 38641 ft | 521 kts | 117° |
| 2026-04-26 18:50 | 37.84245 | -102.82253 | 39061 ft | 520 kts | 117° |
| 2026-04-26 18:50 | 37.83001 | -102.77961 | 39478 ft | 519 kts | 117° |
| 2026-04-26 18:50 | 37.81754 | -102.73666 | 39879 ft | 520 kts | 117° |
| 2026-04-26 18:51 | 37.80501 | -102.69362 | 40247 ft | 520 kts | 117° |
| 2026-04-26 18:51 | 37.79250 | -102.65067 | 40663 ft | 520 kts | 117° |
| 2026-04-26 18:51 | 37.78001 | -102.60784 | 41092 ft | 520 kts | 117° |
| 2026-04-26 18:51 | 37.76749 | -102.56500 | 41509 ft | 519 kts | 117° |
| 2026-04-26 18:52 | 37.75495 | -102.52220 | 41919 ft | 519 kts | 117° |
| 2026-04-26 18:52 | 37.74666 | -102.49391 | 42193 ft | 519 kts | 117° |
| 2026-04-26 18:52 | 37.72988 | -102.43672 | 42746 ft | 518 kts | 117° |
| 2026-04-26 18:52 | 37.71732 | -102.39405 | 43125 ft | 518 kts | 116° |
| 2026-04-26 18:53 | 37.70474 | -102.35135 | 43490 ft | 518 kts | 116° |
| 2026-04-26 18:53 | 37.69218 | -102.30874 | 43897 ft | 518 kts | 116° |
| 2026-04-26 18:53 | 37.67960 | -102.26616 | 44283 ft | 517 kts | 116° |
| 2026-04-26 18:53 | 37.66719 | -102.22424 | 44616 ft | 514 kts | 116° |
| 2026-04-26 18:54 | 37.65463 | -102.18188 | 44777 ft | 518 kts | 116° |
| 2026-04-26 18:54 | 37.64186 | -102.13899 | 44782 ft | 525 kts | 116° |
| 2026-04-26 18:54 | 37.61586 | -102.05153 | 44815 ft | 539 kts | 116° |
| 2026-04-26 18:55 | 37.58913 | -101.96201 | 44832 ft | 551 kts | 115° |
| 2026-04-26 18:55 | 37.56645 | -101.88619 | 44852 ft | 559 kts | 116° |
| 2026-04-26 18:56 | 37.53878 | -101.79414 | 44850 ft | 561 kts | 116° |
| 2026-04-26 18:56 | 37.51109 | -101.70216 | 44848 ft | 561 kts | 116° |
| 2026-04-26 18:57 | 37.48803 | -101.62586 | 44827 ft | 559 kts | 115° |
| 2026-04-26 18:57 | 37.45681 | -101.51831 | 44819 ft | 560 kts | 114° |
| 2026-04-26 18:58 | 37.43019 | -101.42617 | 44819 ft | 559 kts | 115° |
| 2026-04-26 18:58 | 37.40349 | -101.33488 | 44798 ft | 560 kts | 114° |
| 2026-04-26 18:59 | 37.37667 | -101.24246 | 44817 ft | 562 kts | 114° |
| 2026-04-26 18:59 | 37.34957 | -101.15038 | 44814 ft | 562 kts | 114° |
| 2026-04-26 19:00 | 37.32255 | -101.05806 | 44818 ft | 562 kts | 114° |
| 2026-04-26 19:00 | 37.29532 | -100.96596 | 44819 ft | 562 kts | 114° |
| 2026-04-26 19:01 | 37.26813 | -100.87384 | 44821 ft | 562 kts | 114° |
| 2026-04-26 19:01 | 37.24080 | -100.78187 | 44838 ft | 562 kts | 114° |
| 2026-04-26 19:02 | 37.21339 | -100.68977 | 44824 ft | 565 kts | 115° |
| 2026-04-26 19:02 | 37.19047 | -100.61305 | 44829 ft | 564 kts | 115° |
| 2026-04-26 19:03 | 37.15843 | -100.50612 | 44830 ft | 565 kts | 114° |
| 2026-04-26 19:03 | 37.13039 | -100.41298 | 44835 ft | 576 kts | 114° |
| 2026-04-26 19:04 | 37.10201 | -100.31882 | 44831 ft | 578 kts | 114° |
| 2026-04-26 19:04 | 37.07344 | -100.22452 | 44835 ft | 578 kts | 114° |
| 2026-04-26 19:05 | 37.03043 | -100.08302 | 44828 ft | 581 kts | 114° |
| 2026-04-26 19:06 | 37.00174 | -99.98910 | 44827 ft | 582 kts | 114° |
| 2026-04-26 19:06 | 36.97280 | -99.89461 | 44827 ft | 582 kts | 114° |
| 2026-04-26 19:07 | 36.94375 | -99.80011 | 44820 ft | 581 kts | 114° |
| 2026-04-26 19:07 | 36.91471 | -99.70593 | 44817 ft | 580 kts | 114° |
| 2026-04-26 19:08 | 36.88576 | -99.61242 | 44818 ft | 580 kts | 114° |
| 2026-04-26 19:08 | 36.85659 | -99.51843 | 44819 ft | 580 kts | 114° |
| 2026-04-26 19:09 | 36.82726 | -99.42428 | 44810 ft | 581 kts | 114° |
| 2026-04-26 19:09 | 36.79797 | -99.33052 | 44805 ft | 580 kts | 114° |
| 2026-04-26 19:10 | 36.76855 | -99.23673 | 44800 ft | 580 kts | 114° |
| 2026-04-26 19:10 | 36.73908 | -99.14302 | 44800 ft | 580 kts | 114° |
| 2026-04-26 19:11 | 36.70954 | -99.04942 | 44801 ft | 579 kts | 114° |
| 2026-04-26 19:11 | 36.67995 | -98.95596 | 44797 ft | 580 kts | 114° |
| 2026-04-26 19:12 | 36.65048 | -98.86320 | 44790 ft | 580 kts | 114° |
| 2026-04-26 19:12 | 36.62062 | -98.76947 | 44791 ft | 582 kts | 114° |
| 2026-04-26 19:13 | 36.59068 | -98.67582 | 44784 ft | 581 kts | 114° |
| 2026-04-26 19:13 | 36.56071 | -98.58236 | 44759 ft | 580 kts | 114° |
| 2026-04-26 19:14 | 36.53091 | -98.48975 | 44745 ft | 580 kts | 114° |
| 2026-04-26 19:14 | 36.50085 | -98.39663 | 44743 ft | 580 kts | 115° |
| 2026-04-26 19:15 | 36.47075 | -98.30366 | 44734 ft | 578 kts | 114° |
| 2026-04-26 19:15 | 36.44069 | -98.21112 | 44724 ft | 577 kts | 115° |
| 2026-04-26 19:16 | 36.41058 | -98.11872 | 44722 ft | 577 kts | 115° |
| 2026-04-26 19:16 | 36.38033 | -98.02616 | 44721 ft | 578 kts | 115° |
| 2026-04-26 19:17 | 36.35003 | -97.93376 | 44715 ft | 578 kts | 115° |
| 2026-04-26 19:17 | 36.31626 | -97.84431 | 44723 ft | 576 kts | 119° |
| 2026-04-26 19:18 | 36.28090 | -97.75521 | 44754 ft | 576 kts | 118° |
| 2026-04-26 19:18 | 36.24614 | -97.66575 | 44738 ft | 577 kts | 119° |
| 2026-04-26 19:19 | 36.21054 | -97.57622 | 44734 ft | 579 kts | 119° |
| 2026-04-26 19:19 | 36.17538 | -97.48658 | 44733 ft | 578 kts | 119° |
| 2026-04-26 19:20 | 36.13982 | -97.39732 | 44735 ft | 579 kts | 119° |
| 2026-04-26 19:20 | 36.10463 | -97.30843 | 44744 ft | 578 kts | 119° |
| 2026-04-26 19:21 | 36.06897 | -97.21916 | 44750 ft | 579 kts | 119° |
| 2026-04-26 19:21 | 36.03338 | -97.12991 | 44733 ft | 579 kts | 119° |
| 2026-04-26 19:22 | 35.99749 | -97.04046 | 44753 ft | 581 kts | 119° |
| 2026-04-26 19:22 | 35.96159 | -96.95101 | 44770 ft | 581 kts | 119° |
| 2026-04-26 19:23 | 35.92554 | -96.86158 | 44765 ft | 581 kts | 119° |
| 2026-04-26 19:23 | 35.88976 | -96.77296 | 44770 ft | 580 kts | 119° |
| 2026-04-26 19:24 | 35.85344 | -96.68334 | 44795 ft | 581 kts | 119° |
| 2026-04-26 19:24 | 35.79934 | -96.55022 | 44797 ft | 580 kts | 119° |
| 2026-04-26 19:25 | 35.76920 | -96.47633 | 44803 ft | 580 kts | 120° |
| 2026-04-26 19:25 | 35.72678 | -96.37255 | 44808 ft | 579 kts | 119° |
| 2026-04-26 19:26 | 35.69044 | -96.28395 | 44805 ft | 580 kts | 119° |
| 2026-04-26 19:26 | 35.65408 | -96.19550 | 44806 ft | 580 kts | 120° |
| 2026-04-26 19:27 | 35.61762 | -96.10707 | 44810 ft | 579 kts | 120° |
| 2026-04-26 19:27 | 35.58143 | -96.01951 | 44810 ft | 578 kts | 120° |
| 2026-04-26 19:28 | 35.54491 | -95.93140 | 44812 ft | 578 kts | 120° |
| 2026-04-26 19:28 | 35.50836 | -95.84345 | 44816 ft | 578 kts | 120° |
| 2026-04-26 19:29 | 35.47171 | -95.75550 | 44821 ft | 578 kts | 120° |
| 2026-04-26 19:29 | 35.43503 | -95.66769 | 44822 ft | 577 kts | 120° |
| 2026-04-26 19:30 | 35.39830 | -95.58004 | 44830 ft | 578 kts | 120° |
| 2026-04-26 19:30 | 35.36774 | -95.50723 | 44817 ft | 578 kts | 120° |
| 2026-04-26 19:31 | 35.32456 | -95.40468 | 44828 ft | 580 kts | 120° |
| 2026-04-26 19:31 | 35.28749 | -95.31688 | 44822 ft | 580 kts | 120° |
| 2026-04-26 19:32 | 35.25063 | -95.22981 | 44818 ft | 579 kts | 120° |
| 2026-04-26 19:32 | 35.21346 | -95.14223 | 44811 ft | 579 kts | 120° |
| 2026-04-26 19:33 | 35.17625 | -95.05478 | 44819 ft | 579 kts | 120° |
| 2026-04-26 19:33 | 35.13894 | -94.96733 | 44832 ft | 580 kts | 120° |
| 2026-04-26 19:34 | 35.10147 | -94.87973 | 44848 ft | 582 kts | 120° |
| 2026-04-26 19:34 | 35.06389 | -94.79210 | 44841 ft | 582 kts | 120° |
| 2026-04-26 19:35 | 35.02622 | -94.70451 | 44838 ft | 582 kts | 120° |
| 2026-04-26 19:35 | 34.99077 | -94.61561 | 44853 ft | 583 kts | 116° |
| 2026-04-26 19:36 | 34.96831 | -94.55599 | 44868 ft | 584 kts | 117° |
| 2026-04-26 19:36 | 34.92222 | -94.43661 | 44857 ft | 584 kts | 117° |
| 2026-04-26 19:37 | 34.88787 | -94.34684 | 44847 ft | 585 kts | 117° |
| 2026-04-26 19:37 | 34.85314 | -94.25726 | 44856 ft | 585 kts | 117° |
| 2026-04-26 19:38 | 34.81855 | -94.16760 | 44854 ft | 584 kts | 117° |
| 2026-04-26 19:38 | 34.78375 | -94.07815 | 44858 ft | 584 kts | 117° |
| 2026-04-26 19:39 | 34.74903 | -93.98879 | 44863 ft | 584 kts | 117° |
| 2026-04-26 19:39 | 34.71437 | -93.90004 | 44864 ft | 584 kts | 117° |
| 2026-04-26 19:40 | 34.67948 | -93.81082 | 44880 ft | 584 kts | 117° |
| 2026-04-26 19:40 | 34.64464 | -93.72203 | 44878 ft | 580 kts | 117° |
| 2026-04-26 19:41 | 34.60981 | -93.63351 | 44882 ft | 581 kts | 117° |
| 2026-04-26 19:41 | 34.58672 | -93.57491 | 44878 ft | 581 kts | 117° |
| 2026-04-26 19:42 | 34.54584 | -93.47152 | 44892 ft | 581 kts | 117° |
| 2026-04-26 19:42 | 34.50515 | -93.36887 | 44907 ft | 581 kts | 117° |
| 2026-04-26 19:43 | 34.47571 | -93.29482 | 44928 ft | 581 kts | 117° |
| 2026-04-26 19:43 | 34.44078 | -93.20713 | 44894 ft | 581 kts | 117° |
| 2026-04-26 19:44 | 34.40556 | -93.11900 | 44903 ft | 582 kts | 117° |
| 2026-04-26 19:44 | 34.37026 | -93.03085 | 44902 ft | 582 kts | 117° |
| 2026-04-26 19:45 | 34.33482 | -92.94263 | 44900 ft | 582 kts | 117° |
| 2026-04-26 19:45 | 34.29936 | -92.85459 | 44906 ft | 582 kts | 118° |
| 2026-04-26 19:46 | 34.26388 | -92.76669 | 44900 ft | 573 kts | 118° |
| 2026-04-26 19:46 | 34.24694 | -92.72474 | 44886 ft | 552 kts | 118° |
| 2026-04-26 19:46 | 34.23028 | -92.68361 | 44892 ft | 542 kts | 118° |
| 2026-04-26 19:47 | 34.20223 | -92.61464 | 44891 ft | 550 kts | 118° |
| 2026-04-26 19:47 | 34.16308 | -92.51821 | 44900 ft | 553 kts | 118° |
| 2026-04-26 19:48 | 34.12914 | -92.43507 | 44901 ft | 552 kts | 118° |
| 2026-04-26 19:48 | 34.09519 | -92.35197 | 44900 ft | 552 kts | 118° |
| 2026-04-26 19:49 | 34.06115 | -92.26893 | 44907 ft | 554 kts | 118° |
| 2026-04-26 19:49 | 34.02691 | -92.18554 | 44908 ft | 554 kts | 118° |
| 2026-04-26 19:50 | 33.99259 | -92.10223 | 44917 ft | 554 kts | 118° |
| 2026-04-26 19:50 | 33.95828 | -92.01908 | 44916 ft | 554 kts | 118° |
| 2026-04-26 19:51 | 33.92390 | -91.93603 | 44908 ft | 554 kts | 118° |
| 2026-04-26 19:51 | 33.88949 | -91.85305 | 44903 ft | 553 kts | 118° |
| 2026-04-26 19:52 | 33.85506 | -91.77026 | 44905 ft | 553 kts | 118° |
| 2026-04-26 19:52 | 33.82080 | -91.68805 | 44911 ft | 555 kts | 118° |
| 2026-04-26 19:53 | 33.78570 | -91.60408 | 44913 ft | 568 kts | 118° |
| 2026-04-26 19:53 | 33.74979 | -91.51832 | 44931 ft | 580 kts | 118° |
| 2026-04-26 19:54 | 33.71327 | -91.43133 | 44923 ft | 583 kts | 118° |
| 2026-04-26 19:54 | 33.67664 | -91.34432 | 44906 ft | 584 kts | 118° |
| 2026-04-26 19:55 | 33.63984 | -91.25712 | 44911 ft | 586 kts | 118° |
| 2026-04-26 19:55 | 33.60293 | -91.16987 | 44917 ft | 586 kts | 118° |
| 2026-04-26 19:56 | 33.56591 | -91.08259 | 44929 ft | 587 kts | 118° |
| 2026-04-26 19:56 | 33.52871 | -90.99543 | 44924 ft | 587 kts | 120° |
| 2026-04-26 19:57 | 33.48340 | -90.91495 | 44930 ft | 585 kts | 130° |
| 2026-04-26 19:57 | 33.43500 | -90.83650 | 44940 ft | 586 kts | 128° |
| 2026-04-26 19:58 | 33.38792 | -90.75651 | 44946 ft | 586 kts | 129° |
| 2026-04-26 19:58 | 33.33952 | -90.67781 | 44940 ft | 588 kts | 128° |
| 2026-04-26 19:59 | 33.29241 | -90.59880 | 44936 ft | 587 kts | 128° |
| 2026-04-26 19:59 | 33.24412 | -90.51996 | 44940 ft | 587 kts | 128° |
| 2026-04-26 20:00 | 33.19633 | -90.44074 | 44941 ft | 588 kts | 128° |
| 2026-04-26 20:00 | 33.14812 | -90.36190 | 44931 ft | 587 kts | 128° |
| 2026-04-26 20:01 | 33.10016 | -90.28306 | 44933 ft | 586 kts | 128° |
| 2026-04-26 20:01 | 33.05205 | -90.20452 | 44935 ft | 586 kts | 128° |
| 2026-04-26 20:02 | 33.00424 | -90.12640 | 44937 ft | 586 kts | 128° |
| 2026-04-26 20:02 | 32.96391 | -90.06072 | 44930 ft | 586 kts | 128° |
| 2026-04-26 20:03 | 32.90789 | -89.96967 | 44942 ft | 585 kts | 128° |
| 2026-04-26 20:03 | 32.85981 | -89.89168 | 44943 ft | 586 kts | 128° |
| 2026-04-26 20:04 | 32.81155 | -89.81359 | 44941 ft | 586 kts | 128° |
| 2026-04-26 20:04 | 32.76320 | -89.73548 | 44939 ft | 586 kts | 128° |
| 2026-04-26 20:05 | 32.71510 | -89.65797 | 44936 ft | 586 kts | 128° |
| 2026-04-26 20:05 | 32.66671 | -89.58013 | 44935 ft | 586 kts | 128° |
| 2026-04-26 20:06 | 32.61824 | -89.50234 | 44930 ft | 586 kts | 128° |
| 2026-04-26 20:06 | 32.56996 | -89.42500 | 44943 ft | 582 kts | 128° |
| 2026-04-26 20:07 | 32.52173 | -89.34791 | 44937 ft | 583 kts | 128° |
| 2026-04-26 20:07 | 32.47366 | -89.27121 | 44953 ft | 583 kts | 128° |
| 2026-04-26 20:08 | 32.42530 | -89.19424 | 44951 ft | 580 kts | 128° |
| 2026-04-26 20:08 | 32.37720 | -89.11781 | 44956 ft | 579 kts | 128° |
| 2026-04-26 20:09 | 32.32897 | -89.04135 | 44948 ft | 578 kts | 128° |
| 2026-04-26 20:09 | 32.28090 | -88.96528 | 44941 ft | 578 kts | 128° |
| 2026-04-26 20:10 | 32.23271 | -88.88918 | 44940 ft | 578 kts | 128° |
| 2026-04-26 20:10 | 32.18456 | -88.81329 | 44942 ft | 576 kts | 128° |
| 2026-04-26 20:11 | 32.13670 | -88.73803 | 44944 ft | 577 kts | 128° |
| 2026-04-26 20:12 | 32.06436 | -88.62452 | 44925 ft | 577 kts | 128° |
| 2026-04-26 20:12 | 32.01596 | -88.54879 | 44957 ft | 578 kts | 128° |
| 2026-04-26 20:13 | 31.96758 | -88.47320 | 44949 ft | 578 kts | 128° |
| 2026-04-26 20:13 | 31.91934 | -88.39800 | 44958 ft | 574 kts | 128° |
| 2026-04-26 20:14 | 31.87109 | -88.32294 | 44958 ft | 575 kts | 128° |
| 2026-04-26 20:14 | 31.82308 | -88.24838 | 44950 ft | 575 kts | 128° |
| 2026-04-26 20:15 | 31.77469 | -88.17339 | 44939 ft | 575 kts | 128° |
| 2026-04-26 20:15 | 31.72624 | -88.09845 | 44929 ft | 576 kts | 128° |
| 2026-04-26 20:16 | 31.67774 | -88.02359 | 44942 ft | 575 kts | 128° |
| 2026-04-26 20:16 | 31.62924 | -87.94886 | 44935 ft | 576 kts | 128° |
| 2026-04-26 20:17 | 31.58067 | -87.87417 | 44932 ft | 575 kts | 128° |
| 2026-04-26 20:17 | 31.53239 | -87.79930 | 44908 ft | 576 kts | 125° |
| 2026-04-26 20:18 | 31.49455 | -87.71679 | 44910 ft | 575 kts | 113° |
| 2026-04-26 20:18 | 31.46092 | -87.63196 | 44918 ft | 573 kts | 116° |
| 2026-04-26 20:19 | 31.42495 | -87.54911 | 44914 ft | 574 kts | 114° |
| 2026-04-26 20:19 | 31.39070 | -87.46459 | 44911 ft | 574 kts | 115° |
| 2026-04-26 20:20 | 31.35485 | -87.38097 | 44903 ft | 574 kts | 115° |
| 2026-04-26 20:20 | 31.32007 | -87.29686 | 44900 ft | 574 kts | 115° |
| 2026-04-26 20:21 | 31.28437 | -87.21294 | 44909 ft | 577 kts | 115° |
| 2026-04-26 20:21 | 31.24904 | -87.12870 | 44950 ft | 577 kts | 115° |
| 2026-04-26 20:22 | 31.21360 | -87.04525 | 44945 ft | 577 kts | 115° |
| 2026-04-26 20:22 | 31.17801 | -86.96112 | 44923 ft | 578 kts | 115° |
| 2026-04-26 20:23 | 31.14225 | -86.87707 | 44934 ft | 578 kts | 115° |
| 2026-04-26 20:23 | 31.10647 | -86.79302 | 44940 ft | 578 kts | 115° |
| 2026-04-26 20:24 | 31.07061 | -86.70904 | 44943 ft | 578 kts | 115° |
| 2026-04-26 20:24 | 31.03496 | -86.62571 | 44950 ft | 578 kts | 115° |
| 2026-04-26 20:25 | 30.99898 | -86.54180 | 44940 ft | 578 kts | 116° |
| 2026-04-26 20:25 | 30.96298 | -86.45805 | 44947 ft | 578 kts | 116° |
| 2026-04-26 20:26 | 30.92691 | -86.37431 | 44964 ft | 577 kts | 116° |
| 2026-04-26 20:26 | 30.89086 | -86.29084 | 44953 ft | 575 kts | 116° |
| 2026-04-26 20:27 | 30.85481 | -86.20749 | 44926 ft | 576 kts | 116° |
| 2026-04-26 20:27 | 30.81891 | -86.12475 | 44919 ft | 575 kts | 116° |
| 2026-04-26 20:28 | 30.78279 | -86.04162 | 44922 ft | 576 kts | 116° |
| 2026-04-26 20:28 | 30.74659 | -85.95854 | 44928 ft | 576 kts | 116° |
| 2026-04-26 20:29 | 30.71034 | -85.87550 | 44921 ft | 576 kts | 116° |
| 2026-04-26 20:29 | 30.67406 | -85.79258 | 44928 ft | 576 kts | 116° |
| 2026-04-26 20:30 | 30.63768 | -85.70960 | 44923 ft | 576 kts | 116° |
| 2026-04-26 20:30 | 30.60122 | -85.62666 | 44920 ft | 576 kts | 116° |
| 2026-04-26 20:31 | 30.56500 | -85.54441 | 44916 ft | 576 kts | 116° |
| 2026-04-26 20:31 | 30.52851 | -85.46173 | 44919 ft | 576 kts | 116° |
| 2026-04-26 20:32 | 30.49198 | -85.37916 | 44934 ft | 574 kts | 116° |
| 2026-04-26 20:32 | 30.45547 | -85.29680 | 44930 ft | 574 kts | 116° |
| 2026-04-26 20:33 | 30.41893 | -85.21456 | 44922 ft | 574 kts | 116° |
| 2026-04-26 20:33 | 30.38853 | -85.14627 | 44923 ft | 574 kts | 116° |
| 2026-04-26 20:34 | 30.34594 | -85.05079 | 44940 ft | 574 kts | 116° |
| 2026-04-26 20:34 | 30.31532 | -84.98231 | 44931 ft | 569 kts | 116° |
| 2026-04-26 20:35 | 30.27882 | -84.90082 | 44928 ft | 571 kts | 117° |
| 2026-04-26 20:35 | 30.24243 | -84.81974 | 44928 ft | 571 kts | 117° |
| 2026-04-26 20:36 | 30.20574 | -84.73818 | 44929 ft | 571 kts | 117° |
| 2026-04-26 20:36 | 30.16901 | -84.65670 | 44943 ft | 571 kts | 117° |
| 2026-04-26 20:37 | 30.13240 | -84.57567 | 44933 ft | 568 kts | 117° |
| 2026-04-26 20:37 | 30.09574 | -84.49469 | 44937 ft | 569 kts | 117° |
| 2026-04-26 20:38 | 30.05903 | -84.41378 | 44931 ft | 569 kts | 117° |
| 2026-04-26 20:38 | 30.02250 | -84.33341 | 44931 ft | 569 kts | 117° |
| 2026-04-26 20:39 | 29.98573 | -84.25268 | 44918 ft | 565 kts | 117° |
| 2026-04-26 20:39 | 29.94912 | -84.17249 | 44921 ft | 566 kts | 117° |
| 2026-04-26 20:40 | 29.91237 | -84.09216 | 44922 ft | 566 kts | 117° |
| 2026-04-26 20:40 | 29.87555 | -84.01183 | 44929 ft | 566 kts | 117° |
| 2026-04-26 20:41 | 29.83654 | -83.93296 | 44922 ft | 566 kts | 126° |
| 2026-04-26 20:41 | 29.78358 | -83.86757 | 44924 ft | 557 kts | 142° |
| 2026-04-26 20:42 | 29.71811 | -83.82090 | 44933 ft | 553 kts | 157° |
| 2026-04-26 20:42 | 29.64815 | -83.78417 | 44943 ft | 554 kts | 158° |
| 2026-04-26 20:43 | 29.58052 | -83.74076 | 44939 ft | 558 kts | 150° |
| 2026-04-26 20:43 | 29.51371 | -83.69566 | 44935 ft | 555 kts | 155° |
| 2026-04-26 20:44 | 29.44548 | -83.65383 | 44938 ft | 557 kts | 153° |
| 2026-04-26 20:44 | 29.37887 | -83.60965 | 44921 ft | 556 kts | 154° |
| 2026-04-26 20:45 | 29.31107 | -83.56745 | 44943 ft | 555 kts | 153° |
| 2026-04-26 20:45 | 29.24384 | -83.52372 | 44951 ft | 554 kts | 153° |
| 2026-04-26 20:46 | 29.17651 | -83.48135 | 44945 ft | 553 kts | 154° |
| 2026-04-26 20:46 | 29.10936 | -83.43827 | 44944 ft | 553 kts | 153° |
| 2026-04-26 20:47 | 29.04229 | -83.39584 | 44941 ft | 546 kts | 153° |
| 2026-04-26 20:47 | 28.97613 | -83.35377 | 44935 ft | 547 kts | 153° |
| 2026-04-26 20:47 | 28.94272 | -83.33421 | 44194 ft | 534 kts | 160° |
| 2026-04-26 20:48 | 28.90833 | -83.32007 | 43545 ft | 518 kts | 166° |
| 2026-04-26 20:48 | 28.87415 | -83.30870 | 42874 ft | 506 kts | 168° |
| 2026-04-26 20:48 | 28.84072 | -83.29738 | 42216 ft | 497 kts | 166° |
| 2026-04-26 20:48 | 28.80818 | -83.28495 | 41570 ft | 489 kts | 164° |
| 2026-04-26 20:49 | 28.77608 | -83.27256 | 40925 ft | 486 kts | 165° |
| 2026-04-26 20:49 | 28.74384 | -83.26105 | 40297 ft | 486 kts | 166° |
| 2026-04-26 20:49 | 28.71140 | -83.24971 | 39659 ft | 490 kts | 166° |
| 2026-04-26 20:49 | 28.67888 | -83.23780 | 39017 ft | 493 kts | 165° |
| 2026-04-26 20:50 | 28.64625 | -83.22559 | 38316 ft | 495 kts | 165° |
| 2026-04-26 20:50 | 28.61345 | -83.21364 | 37658 ft | 493 kts | 165° |
| 2026-04-26 20:50 | 28.58068 | -83.20193 | 37009 ft | 493 kts | 165° |
| 2026-04-26 20:50 | 28.54795 | -83.19007 | 36357 ft | 493 kts | 165° |
| 2026-04-26 20:51 | 28.51528 | -83.17798 | 35702 ft | 493 kts | 165° |
| 2026-04-26 20:51 | 28.48270 | -83.16594 | 35047 ft | 493 kts | 165° |
| 2026-04-26 20:51 | 28.44996 | -83.15404 | 34405 ft | 494 kts | 165° |
| 2026-04-26 20:51 | 28.41728 | -83.14217 | 33724 ft | 490 kts | 165° |
| 2026-04-26 20:52 | 28.38490 | -83.13030 | 33067 ft | 491 kts | 165° |
| 2026-04-26 20:52 | 28.35225 | -83.11834 | 32418 ft | 493 kts | 165° |
| 2026-04-26 20:52 | 28.31983 | -83.10654 | 31772 ft | 495 kts | 165° |
| 2026-04-26 20:52 | 28.28699 | -83.09459 | 31118 ft | 497 kts | 164° |
| 2026-04-26 20:53 | 28.25396 | -83.08254 | 30467 ft | 501 kts | 164° |
| 2026-04-26 20:53 | 28.22099 | -83.07051 | 29769 ft | 495 kts | 164° |
| 2026-04-26 20:53 | 28.18849 | -83.05868 | 29097 ft | 488 kts | 165° |
| 2026-04-26 20:53 | 28.15617 | -83.04695 | 28464 ft | 485 kts | 165° |
| 2026-04-26 20:54 | 28.12421 | -83.03534 | 27836 ft | 479 kts | 165° |
| 2026-04-26 20:54 | 28.09269 | -83.02386 | 27209 ft | 473 kts | 165° |
| 2026-04-26 20:54 | 28.06249 | -83.01125 | 26956 ft | 447 kts | 160° |
| 2026-04-26 20:54 | 28.03442 | -82.99844 | 26958 ft | 434 kts | 161° |
| 2026-04-26 20:55 | 28.00590 | -82.98602 | 26960 ft | 441 kts | 161° |
| 2026-04-26 20:55 | 27.97823 | -82.97371 | 26329 ft | 428 kts | 161° |
| 2026-04-26 20:55 | 27.95024 | -82.96085 | 25289 ft | 434 kts | 160° |
| 2026-04-26 20:55 | 27.92195 | -82.94794 | 24277 ft | 439 kts | 161° |
| 2026-04-26 20:56 | 27.89383 | -82.93538 | 23243 ft | 430 kts | 161° |
| 2026-04-26 20:56 | 27.86659 | -82.92318 | 22810 ft | 415 kts | 161° |
| 2026-04-26 20:56 | 27.83943 | -82.91095 | 22326 ft | 420 kts | 160° |
| 2026-04-26 20:56 | 27.81232 | -82.89872 | 21808 ft | 419 kts | 160° |
| 2026-04-26 20:57 | 27.78534 | -82.88660 | 21278 ft | 417 kts | 161° |
| 2026-04-26 20:57 | 27.75846 | -82.87455 | 20764 ft | 414 kts | 161° |
| 2026-04-26 20:57 | 27.73176 | -82.86255 | 20248 ft | 412 kts | 160° |
| 2026-04-26 20:57 | 27.70516 | -82.85061 | 19743 ft | 410 kts | 161° |
| 2026-04-26 20:58 | 27.67876 | -82.83877 | 19240 ft | 407 kts | 161° |
| 2026-04-26 20:58 | 27.65247 | -82.82699 | 18740 ft | 405 kts | 161° |
| 2026-04-26 20:58 | 27.62636 | -82.81528 | 18242 ft | 403 kts | 161° |
| 2026-04-26 20:58 | 27.60042 | -82.80367 | 17712 ft | 400 kts | 160° |
| 2026-04-26 20:59 | 27.57463 | -82.79213 | 17219 ft | 397 kts | 160° |
| 2026-04-26 20:59 | 27.54899 | -82.78066 | 16737 ft | 394 kts | 160° |
| 2026-04-26 20:59 | 27.52385 | -82.76942 | 16254 ft | 392 kts | 160° |
| 2026-04-26 20:59 | 27.49857 | -82.75813 | 15771 ft | 390 kts | 160° |
| 2026-04-26 21:00 | 27.47341 | -82.74688 | 15299 ft | 388 kts | 160° |
| 2026-04-26 21:00 | 27.44842 | -82.73573 | 14820 ft | 386 kts | 160° |
| 2026-04-26 21:00 | 27.42357 | -82.72464 | 14351 ft | 383 kts | 160° |
| 2026-04-26 21:00 | 27.39888 | -82.71363 | 13886 ft | 381 kts | 160° |
| 2026-04-26 21:01 | 27.37433 | -82.70269 | 13389 ft | 377 kts | 160° |
| 2026-04-26 21:01 | 27.35005 | -82.69186 | 12919 ft | 373 kts | 160° |
| 2026-04-26 21:01 | 27.32600 | -82.68115 | 12459 ft | 370 kts | 160° |
| 2026-04-26 21:01 | 27.30212 | -82.67052 | 11996 ft | 367 kts | 160° |
| 2026-04-26 21:02 | 27.27853 | -82.65987 | 11534 ft | 364 kts | 158° |
| 2026-04-26 21:02 | 27.25676 | -82.64544 | 11084 ft | 363 kts | 147° |
| 2026-04-26 21:02 | 27.23627 | -82.62895 | 10972 ft | 363 kts | 144° |
| 2026-04-26 21:02 | 27.21603 | -82.61267 | 10976 ft | 363 kts | 146° |
| 2026-04-26 21:03 | 27.19490 | -82.59647 | 10972 ft | 362 kts | 147° |
| 2026-04-26 21:03 | 27.17405 | -82.58053 | 10973 ft | 362 kts | 146° |
| 2026-04-26 21:03 | 27.15360 | -82.56453 | 10972 ft | 363 kts | 146° |
| 2026-04-26 21:03 | 27.13292 | -82.54831 | 10971 ft | 363 kts | 146° |
| 2026-04-26 21:04 | 27.11210 | -82.53217 | 10973 ft | 363 kts | 146° |
| 2026-04-26 21:04 | 27.09135 | -82.51613 | 10973 ft | 363 kts | 146° |
| 2026-04-26 21:04 | 27.07059 | -82.49999 | 10972 ft | 363 kts | 146° |
| 2026-04-26 21:04 | 27.04981 | -82.48383 | 10960 ft | 363 kts | 146° |
| 2026-04-26 21:05 | 27.02905 | -82.46774 | 10960 ft | 363 kts | 146° |
| 2026-04-26 21:05 | 27.00830 | -82.45154 | 10960 ft | 363 kts | 146° |
| 2026-04-26 21:05 | 26.98774 | -82.43503 | 10961 ft | 363 kts | 145° |
| 2026-04-26 21:05 | 26.96718 | -82.41853 | 10954 ft | 363 kts | 145° |
| 2026-04-26 21:06 | 26.94695 | -82.40252 | 10953 ft | 340 kts | 146° |
| 2026-04-26 21:06 | 26.92854 | -82.38795 | 10897 ft | 312 kts | 146° |
| 2026-04-26 21:06 | 26.91103 | -82.37406 | 10562 ft | 305 kts | 146° |
| 2026-04-26 21:06 | 26.89377 | -82.36037 | 10222 ft | 303 kts | 146° |
| 2026-04-26 21:07 | 26.87662 | -82.34679 | 9797 ft | 302 kts | 146° |
| 2026-04-26 21:07 | 26.85957 | -82.33328 | 9328 ft | 297 kts | 146° |
| 2026-04-26 21:07 | 26.84277 | -82.31997 | 8866 ft | 295 kts | 146° |
| 2026-04-26 21:07 | 26.82603 | -82.30672 | 8415 ft | 294 kts | 146° |
| 2026-04-26 21:08 | 26.80953 | -82.29366 | 7969 ft | 288 kts | 146° |
| 2026-04-26 21:08 | 26.79310 | -82.28067 | 7530 ft | 289 kts | 146° |
| 2026-04-26 21:08 | 26.77673 | -82.26773 | 7102 ft | 285 kts | 146° |
| 2026-04-26 21:08 | 26.76065 | -82.25501 | 6679 ft | 281 kts | 146° |
| 2026-04-26 21:09 | 26.74461 | -82.24232 | 6309 ft | 284 kts | 146° |
| 2026-04-26 21:09 | 26.72854 | -82.22964 | 5916 ft | 279 kts | 146° |
| 2026-04-26 21:09 | 26.71273 | -82.21713 | 5522 ft | 277 kts | 146° |
| 2026-04-26 21:09 | 26.69705 | -82.20476 | 5137 ft | 274 kts | 146° |
| 2026-04-26 21:10 | 26.68172 | -82.19264 | 4999 ft | 265 kts | 146° |
| 2026-04-26 21:10 | 26.66633 | -82.18051 | 5003 ft | 275 kts | 146° |
| 2026-04-26 21:10 | 26.65072 | -82.16821 | 5003 ft | 276 kts | 147° |
| 2026-04-26 21:10 | 26.63514 | -82.15593 | 5012 ft | 274 kts | 146° |
| 2026-04-26 21:11 | 26.61973 | -82.14376 | 5008 ft | 271 kts | 146° |
| 2026-04-26 21:11 | 26.60444 | -82.13171 | 5010 ft | 276 kts | 146° |
| 2026-04-26 21:11 | 26.58878 | -82.11938 | 5002 ft | 274 kts | 146° |
| 2026-04-26 21:11 | 26.57313 | -82.10706 | 5005 ft | 275 kts | 146° |
| 2026-04-26 21:12 | 26.55747 | -82.09473 | 4998 ft | 275 kts | 146° |
| 2026-04-26 21:12 | 26.54188 | -82.08246 | 4997 ft | 275 kts | 146° |
| 2026-04-26 21:12 | 26.52619 | -82.07011 | 4992 ft | 272 kts | 146° |
| 2026-04-26 21:12 | 26.51063 | -82.05789 | 4993 ft | 277 kts | 146° |
| 2026-04-26 21:13 | 26.49501 | -82.04560 | 4994 ft | 276 kts | 146° |
| 2026-04-26 21:13 | 26.47942 | -82.03335 | 4995 ft | 271 kts | 146° |
| 2026-04-26 21:13 | 26.46410 | -82.02131 | 4995 ft | 274 kts | 146° |
| 2026-04-26 21:13 | 26.44860 | -82.00914 | 4993 ft | 272 kts | 146° |
| 2026-04-26 21:14 | 26.43486 | -81.99466 | 4962 ft | 272 kts | 128° |
| 2026-04-26 21:14 | 26.42407 | -81.97721 | 4998 ft | 273 kts | 124° |
| 2026-04-26 21:14 | 26.41343 | -81.95956 | 5001 ft | 277 kts | 125° |
| 2026-04-26 21:14 | 26.40245 | -81.94212 | 5003 ft | 270 kts | 126° |
| 2026-04-26 21:15 | 26.39296 | -81.92482 | 4947 ft | 267 kts | 112° |
| 2026-04-26 21:15 | 26.39127 | -81.90450 | 4962 ft | 253 kts | 83° |
| 2026-04-26 21:15 | 26.39368 | -81.88568 | 5000 ft | 242 kts | 79° |
| 2026-04-26 21:15 | 26.39622 | -81.86723 | 5006 ft | 240 kts | 80° |
| 2026-04-26 21:16 | 26.39861 | -81.84892 | 4996 ft | 239 kts | 80° |
| 2026-04-26 21:16 | 26.40096 | -81.83059 | 4999 ft | 239 kts | 80° |
| 2026-04-26 21:16 | 26.40335 | -81.81221 | 5001 ft | 241 kts | 80° |
| 2026-04-26 21:16 | 26.40745 | -81.79437 | 4932 ft | 238 kts | 60° |
| 2026-04-26 21:17 | 26.41693 | -81.77946 | 4997 ft | 236 kts | 50° |
| 2026-04-26 21:17 | 26.42688 | -81.76444 | 4635 ft | 242 kts | 52° |
| 2026-04-26 21:17 | 26.43645 | -81.74959 | 4200 ft | 237 kts | 52° |
| 2026-04-26 21:17 | 26.44602 | -81.73480 | 3760 ft | 234 kts | 51° |
| 2026-04-26 21:18 | 26.45558 | -81.72015 | 3333 ft | 231 kts | 51° |
| 2026-04-26 21:18 | 26.46494 | -81.70575 | 2975 ft | 225 kts | 51° |
| 2026-04-26 21:18 | 26.47409 | -81.69163 | 2990 ft | 226 kts | 51° |
| 2026-04-26 21:18 | 26.48342 | -81.67721 | 2993 ft | 228 kts | 51° |
| 2026-04-26 21:19 | 26.49222 | -81.66363 | 2971 ft | 206 kts | 51° |
| 2026-04-26 21:19 | 26.50064 | -81.65049 | 2709 ft | 212 kts | 52° |
| 2026-04-26 21:19 | 26.50943 | -81.63716 | 2459 ft | 213 kts | 51° |
| 2026-04-26 21:19 | 26.51832 | -81.62391 | 2256 ft | 211 kts | 49° |
| 2026-04-26 21:20 | 26.52897 | -81.61331 | 2082 ft | 202 kts | 25° |
| 2026-04-26 21:20 | 26.53778 | -81.61038 | 1909 ft | 199 kts | 2° |
| 2026-04-26 21:20 | 26.55126 | -81.61247 | 1680 ft | 192 kts | 338° |
| 2026-04-26 21:20 | 26.56247 | -81.61897 | 1715 ft | 172 kts | 322° |
| 2026-04-26 21:21 | 26.57163 | -81.62698 | 1648 ft | 163 kts | 317° |
| 2026-04-26 21:21 | 26.57940 | -81.63573 | 1609 ft | 152 kts | 307° |
| 2026-04-26 21:21 | 26.58508 | -81.64559 | 1537 ft | 151 kts | 295° |
| 2026-04-26 21:21 | 26.58816 | -81.65666 | 1499 ft | 149 kts | 277° |
| 2026-04-26 21:22 | 26.58769 | -81.66813 | 1432 ft | 148 kts | 263° |
| 2026-04-26 21:22 | 26.58551 | -81.67923 | 1468 ft | 143 kts | 253° |
| 2026-04-26 21:22 | 26.58161 | -81.68924 | 1299 ft | 141 kts | 238° |
| 2026-04-26 21:23 | 26.56947 | -81.70560 | 928 ft | 132 kts | 233° |
| 2026-04-26 21:23 | 26.56369 | -81.71355 | 721 ft | 132 kts | 236° |
| 2026-04-26 21:23 | 26.55812 | -81.72171 | 537 ft | 132 kts | 236° |
| 2026-04-26 21:23 | 26.55260 | -81.72999 | 326 ft | 133 kts | 236° |
| 2026-04-26 21:24 | 26.54729 | -81.73809 | 135 ft | 124 kts | 237° |
| 2026-04-26 21:24 | 26.54251 | -81.74538 | 44 ft | 105 kts | 237° |
| 2026-04-26 21:24 | 26.53870 | -81.75125 | 41 ft | 84 kts | 234° |
| 2026-04-26 21:24 | 26.53577 | -81.75577 | 40 ft | 57 kts | 234° |
| 2026-04-26 21:25 | 26.53390 | -81.75868 | 41 ft | 36 kts | 232° |
| 2026-04-26 21:25 | 26.53286 | -81.76032 | 40 ft | 21 kts | 244° |
| 2026-04-26 21:25 | 26.53262 | -81.76159 | 40 ft | 11 kts | 277° |
| 2026-04-26 21:25 | 26.53292 | -81.76228 | 41 ft | 8 kts | 315° |
| 2026-04-26 21:26 | 26.53335 | -81.76268 | 41 ft | 8 kts | 321° |
| 2026-04-26 21:26 | 26.53380 | -81.76304 | 41 ft | 8 kts | 325° |
| 2026-04-26 21:26 | 26.53425 | -81.76339 | 41 ft | 8 kts | 324° |
| 2026-04-26 21:26 | 26.53472 | -81.76370 | 41 ft | 8 kts | 341° |
| 2026-04-26 21:27 | 26.53525 | -81.76366 | 41 ft | 8 kts | 13° |
| 2026-04-26 21:27 | 26.53567 | -81.76333 | 41 ft | 7 kts | 46° |
| 2026-04-26 21:27 | 26.53602 | -81.76339 | 41 ft | 4 kts | 325° |
| 2026-04-26 21:27 | 26.53605 | -81.76341 | 41 ft | 0 kts | 325° |